Vliegveldwaarnemingen Nederland - (AUTO) METAR

Luchtvaartmeteorologische informatie voor operationeel gebruik en vluchtvoorbereiding is beschikbaar op www.luchtvaartmeteo.nl.

ZCZC
SA280955 EHFS     VLISSINGEN AWS   NLD   8 m.
METAR EHFS 280955Z AUTO 21011KT 9000 NSC 09/08 Q1010=

ZCZC
SA280955 EHSG     BSA   NLD   43 m.
METAR EHSG 280955Z AUTO 22009KT 9999 FEW024/// 12/06 Q1009=

ZCZC
SA281025 EHKD     DE KOOY/DE KOOY   NLD   1 m.
METAR EHKD 281025Z AUTO VRB02KT 9999 BR FEW003 SCT012 BKN016 11/10
Q1008 REDZ
GRN TEMPO SCT010=

ZCZC
SA281025 EHFD     F3-FB-1   NLD   50 m.
METAR EHFD 281025Z AUTO 14005KT 9999 -RA FEW004/// SCT012///
BKN014/// 10/09 Q1007=

ZCZC
SA281025 EHAM     AMSTERDAM/SCHIPHOL   NLD   -3 m.
METAR EHAM 281025Z 20008KT 2000 BR BKN002 BKN003 10/09 Q1009 BECMG
3000 SCT002 BKN003=

ZCZC
SA281025 EHVL     VLIELAND   NLD   10 m.
METAR EHVL 281025Z AUTO 24005KT 9999 FEW061 OVC066 11/09 Q1008 BLU=

ZCZC
SA281025 EHJR     K13-A   NLD   37 m.
METAR EHJR 281025Z AUTO 27010KT //// // ///////// 11/07 Q1008 RE//
W14/H7=

ZCZC
SA281025 EHLE     LELYSTAD/LELYSTAD   NLD   -3 m.
METAR EHLE 281025Z AUTO 19006KT 150V210 4100 BR OVC002 08/08 Q1009
TEMPO 3000=

ZCZC
SA281025 EHLW     LEEUWARDEN/LEEUWARDEN   NLD   1 m.
METAR EHLW 281025Z AUTO 21008KT 170V230 2700 -RA SCT002 BKN010 OVC050
09/08 Q1008 RERA REDZ AMB=

ZCZC
SA281025 EHDL     ARNHEM/DEELEN   NLD   48 m.
METAR EHDL 281025Z AUTO 19005KT 110V240 9999 BKN002 OVC004 08/08
Q1010 REDZ AMB=

ZCZC
SA281025 EHGG     GRONINGEN/EELDE   NLD   5 m.
METAR EHGG 281025Z AUTO 18010KT 150V210 9999 DZ BKN004 OVC005 08/08
Q1009 TEMPO 5000 BKN005=

ZCZC
SA281025 EHSC     LICHTEILAND GOEREE   NLD   22 m.
METAR EHSC 281025Z AUTO 27009KT 9999 ///////// 12/08 Q1010 W12/H6=

ZCZC
SA281025 EHSA     EURO PLATFORM   NLD   19 m.
METAR EHSA 281025Z AUTO /////KT 9999 ///////// 12/07 Q1009 W13/H///=

ZCZC
SA281025 EHWO     WOENSDRECHT/WOENSDRECHT   NLD   19 m.
METAR EHWO 281025Z AUTO 22005KT 8000 BR BKN004 OVC006 09/09 Q1010
YLO TEMPO 2500 -DZRA BKN002 OVC004=

ZCZC
SA281025 EHRD     ROTTERDAM/THE HAGUE AIRPORT   NLD   -5 m.
METAR EHRD 281025Z AUTO 22008KT 190V250 5000 OVC005 10/10 Q1009 BECMG
OVC008=

ZCZC
SA281025 EHGR     GILZE-RIJEN/GILZE-RIJEN   NLD   14 m.
METAR EHGR 281025Z AUTO 21004KT 170V240 3500 R28/P3000N BR BKN003
OVC004 09/09 Q1010
YLO TEMPO 1500 DZRA BR BKN002 BKN004=

ZCZC
SA281025 EHEH     EINDHOVEN/EINDHOVEN   NLD   22 m.
METAR EHEH 281025Z AUTO 21005KT 5000 -DZ SCT002 OVC004 09/08 Q1010
REDZ
AMB TEMPO 2500 DZRA BKN002 BKN004=

ZCZC
SA281025 EHVK     VOLKEL/VOLKEL   NLD   21 m.
METAR EHVK 281025Z AUTO 20004KT 160V240 7000 -RA SCT002 BKN004 OVC005
08/08 Q1010 RERA REDZ AMB=

ZCZC
SA281025 EHBK     MAASTRICHT/MAASTRICHT-AACHEN   NLD   114 m.
METAR EHBK 281025Z AUTO 21008KT 5000 -DZ BKN002 BKN003 OVC006 08/08
Q1010 REDZ BECMG -DZ=

ZCZC
SA281025 EHKV     K14-FA-1C   NLD   41 m.
METAR EHKV 281025Z AUTO 28012KT 260V350 9999 FEW012 SCT020 12/07
Q1008=

ZCZC
SA281025 EHMG     L9-FF-1   NLD   44 m.
METAR EHMG 281025Z AUTO VRB15KT 9999 FEW008 SCT019 BKN047 11/07
Q1009=

ZCZC
SA281025 EHMA     AWG-1   NLD   40 m.
METAR EHMA 281025Z AUTO 21014KT 2200 -RA FEW001 BKN002 BKN005 09/08
Q1008=

ZCZC
SA281025 EHDV     D15-FA-1   NLD   42 m.
METAR EHDV 281025Z AUTO 28011KT 240V320 9999 SCT005/// BKN006///
10/// Q1007=

ZCZC
SA281025 EHAK     A12-CPP   NLD   48 m.
METAR EHAK 281025Z AUTO VRB04KT 9999 SCT025/// SCT031/// BKN037///
10/08 Q1007=

ZCZC
SA281025 EHQE     HOORN-A   NLD   50 m.
METAR EHQE 281025Z AUTO /////KT 9999 FEW012 11/08 Q1008=

ZCZC
SA281025 EHJA     J6-A   NLD   45 m.
METAR EHJA 281025Z AUTO 24009KT 9999 FEW008/// 10/08 Q1008=

ZCZC
SA281025 EHPG     P11-B   NLD   41 m.
METAR EHPG 281025Z AUTO VRB09KT 9999 FEW020 12/07 Q1008=

ZCZC
SA281025 EHHW     BUITENGAATS/BG-OHVS2      42 m.
METAR EHHW 281025Z AUTO 18009KT 9999 FEW004/// SCT005/// BKN007///
09/08 Q1008=

28/11/2022 11.30 uur LT